Time;durP1;ratioP1;P1;durP2;ratioP2;P2;SDS_P1;SDS_P2;PMS_P1;PMS_P2;Temp;Humidity;BMP_temperature;BMP_pressure;BME280_temperature;BME280_humidity;BME280_pressure;Samples;Min_cycle;Max_cycle;Signal;HPM_P1;HPM_P2
2021/05/09 00:02:01;;;;;;;7.93;7.13;;;;;;;11.72;86.11;98733.09;5096282;28;20625;-74
2021/05/09 00:04:28;;;;;;;7.40;6.70;;;;;;;11.66;86.01;98733.56;5095891;28;20271;-75
2021/05/09 00:06:55;;;;;;;7.03;6.25;;;;;;;11.67;85.96;98732.59;5095822;28;20192;-75
2021/05/09 00:09:22;;;;;;;8.80;6.72;;;;;;;11.56;86.16;98730.72;5096001;28;20196;-73
2021/05/09 00:11:49;;;;;;;10.75;7.40;;;;;;;11.58;85.94;98730.63;5095760;28;20223;-75
2021/05/09 00:14:15;;;;;;;9.15;7.00;;;;;;;11.47;86.46;98732.28;5095946;28;20187;-72
2021/05/09 00:16:41;;;;;;;7.40;6.70;;;;;;;11.50;86.79;98733.03;5095341;28;20235;-74
2021/05/09 00:19:07;;;;;;;6.75;6.10;;;;;;;11.40;87.11;98728.31;5095487;28;20207;-74
2021/05/09 00:21:33;;;;;;;7.20;6.50;;;;;;;11.30;87.83;98724.59;5096102;28;20400;-74
2021/05/09 00:24:00;;;;;;;8.50;7.05;;;;;;;11.26;88.08;98725.78;5095420;28;20231;-74
2021/05/09 00:26:27;;;;;;;10.23;8.20;;;;;;;11.24;88.48;98725.91;5095306;28;20184;-74
2021/05/09 00:28:54;;;;;;;11.35;7.78;;;;;;;11.26;88.42;98726.66;5095508;28;20491;-74
2021/05/09 00:31:20;;;;;;;7.45;6.53;;;;;;;11.25;88.46;98719.53;5095364;28;20238;-74
2021/05/09 00:33:46;;;;;;;8.05;7.25;;;;;;;11.42;87.64;98704.81;5095186;28;20220;-74
2021/05/09 00:36:12;;;;;;;11.60;9.18;;;;;;;11.41;87.52;98708.47;5095541;28;20218;-73
2021/05/09 00:38:38;;;;;;;11.20;9.60;;;;;;;11.50;86.99;98703.38;5095459;28;20215;-74
2021/05/09 00:41:04;;;;;;;12.52;11.20;;;;;;;11.45;86.83;98712.66;5095006;28;20256;-73
2021/05/09 00:43:31;;;;;;;13.32;10.13;;;;;;;11.40;86.64;98705.91;5095338;28;20275;-73
2021/05/09 00:45:57;;;;;;;11.35;8.90;;;;;;;11.43;86.35;98689.50;5094857;28;20195;-74
2021/05/09 00:48:23;;;;;;;9.80;8.18;;;;;;;11.28;87.41;98696.91;5095042;28;20593;-73
2021/05/09 00:50:49;;;;;;;7.20;6.32;;;;;;;11.19;88.12;98697.59;5095181;28;20187;-73
2021/05/09 00:53:20;;;;;;;8.15;6.97;;;;;;;11.34;87.15;98690.19;5095130;28;20613;-73
2021/05/09 00:55:46;;;;;;;7.00;6.03;;;;;;;11.05;88.59;98695.94;5095268;28;20197;-73
2021/05/09 00:58:14;;;;;;;8.43;7.57;;;;;;;11.04;89.15;98697.78;5094915;28;20224;-73
2021/05/09 01:00:41;;;;;;;10.55;7.72;;;;;;;11.17;88.14;98688.75;5094688;28;20285;-73
2021/05/09 01:03:08;;;;;;;7.72;6.93;;;;;;;11.12;87.96;98694.50;5094762;28;20195;-73
2021/05/09 01:05:35;;;;;;;8.15;7.35;;;;;;;11.01;88.33;98689.94;5094933;28;20246;-75
2021/05/09 01:08:01;;;;;;;6.28;5.78;;;;;;;10.91;89.27;98688.88;5094609;28;20286;-74
2021/05/09 01:10:28;;;;;;;9.23;7.70;;;;;;;11.06;88.91;98690.44;5094172;28;20195;-75
2021/05/09 01:12:54;;;;;;;8.32;7.38;;;;;;;10.78;89.88;98690.75;5094611;28;20238;-72
2021/05/09 01:15:21;;;;;;;7.88;6.53;;;;;;;10.63;91.29;98687.38;5094102;28;20223;-74
2021/05/09 01:17:48;;;;;;;7.10;6.50;;;;;;;10.59;92.07;98672.41;5094446;28;20182;-73
2021/05/09 01:20:33;;;;;;;8.02;6.65;;;;;;;10.77;91.22;98689.91;5094626;28;20302;-75
2021/05/09 01:22:59;;;;;;;7.10;6.50;;;;;;;10.76;90.72;98671.16;5094818;28;20293;-73
2021/05/09 01:25:25;;;;;;;7.57;6.70;;;;;;;10.80;90.37;98662.72;5094258;28;20191;-73
2021/05/09 01:27:55;;;;;;;7.38;6.68;;;;;;;10.73;90.34;98668.69;5094351;28;20274;-74
2021/05/09 01:30:22;;;;;;;7.28;6.47;;;;;;;10.66;91.01;98670.13;5094162;28;20187;-74
2021/05/09 01:32:48;;;;;;;11.07;7.50;;;;;;;10.84;89.94;98664.22;5094037;28;20204;-74
2021/05/09 01:35:14;;;;;;;7.18;6.55;;;;;;;11.00;89.00;98666.66;5094161;28;20236;-74
2021/05/09 01:37:41;;;;;;;7.63;5.93;;;;;;;10.63;90.60;98664.00;5094650;28;20230;-72
2021/05/09 01:40:11;;;;;;;6.65;6.03;;;;;;;10.90;89.96;98659.34;5094108;28;20322;-74
2021/05/09 01:42:40;;;;;;;6.30;5.70;;;;;;;10.82;89.96;98663.47;5093975;28;20203;-74
2021/05/09 01:45:08;;;;;;;6.03;5.53;;;;;;;10.63;91.25;98661.28;5093546;28;20187;-74
2021/05/09 01:47:36;;;;;;;6.55;5.95;;;;;;;10.52;92.09;98655.84;5093868;28;20619;-74
2021/05/09 01:50:04;;;;;;;6.80;6.10;;;;;;;10.48;92.53;98650.78;5094089;28;20198;-74
2021/05/09 01:52:30;;;;;;;7.20;6.50;;;;;;;10.57;92.29;98650.97;5093994;28;20186;-75
2021/05/09 01:54:57;;;;;;;6.18;5.57;;;;;;;10.56;92.30;98659.16;5093983;28;20621;-74
2021/05/09 01:57:23;;;;;;;6.68;6.07;;;;;;;10.60;91.90;98647.19;5093648;28;20278;-75
2021/05/09 01:59:49;;;;;;;6.85;6.25;;;;;;;10.53;92.05;98646.78;5093844;28;20549;-74
2021/05/09 02:02:16;;;;;;;5.97;5.47;;;;;;;10.58;91.96;98650.00;5094008;28;20718;-74
2021/05/09 02:04:42;;;;;;;7.38;5.95;;;;;;;10.72;91.14;98648.13;5093977;28;20186;-74
2021/05/09 02:07:08;;;;;;;6.20;5.60;;;;;;;10.72;90.36;98640.03;5094028;28;20693;-74
2021/05/09 02:09:34;;;;;;;7.22;6.28;;;;;;;10.60;91.11;98644.50;5093527;28;20709;-73
2021/05/09 02:12:01;;;;;;;7.10;5.97;;;;;;;10.44;92.08;98634.00;5093443;28;20273;-75
2021/05/09 02:14:27;;;;;;;7.40;5.90;;;;;;;10.42;92.39;98633.25;5093355;28;20328;-75
2021/05/09 02:16:56;;;;;;;5.95;5.43;;;;;;;10.39;92.52;98631.63;5093581;28;20190;-74
2021/05/09 02:19:22;;;;;;;6.20;5.50;;;;;;;10.49;92.58;98636.34;5093173;28;20227;-72
2021/05/09 02:21:48;;;;;;;6.00;5.40;;;;;;;10.52;91.70;98628.06;5093710;28;20218;-74
2021/05/09 02:24:14;;;;;;;5.93;5.43;;;;;;;10.70;90.68;98636.63;5093030;28;20191;-74
2021/05/09 02:26:40;;;;;;;6.90;6.30;;;;;;;10.81;90.00;98634.00;5093772;28;20655;-72
2021/05/09 02:29:07;;;;;;;7.53;6.45;;;;;;;10.75;89.97;98639.81;5093687;28;20697;-74
2021/05/09 02:31:33;;;;;;;5.50;5.00;;;;;;;10.79;89.47;98626.03;5093637;28;20594;-73
2021/05/09 02:33:59;;;;;;;5.93;5.30;;;;;;;10.72;89.57;98623.88;5093628;28;20672;-74
2021/05/09 02:36:26;;;;;;;7.18;4.93;;;;;;;10.75;89.19;98621.84;5092812;28;20277;-74
2021/05/09 02:38:52;;;;;;;7.75;5.15;;;;;;;10.49;90.66;98625.59;5093566;28;20995;-72
2021/05/09 02:41:20;;;;;;;5.78;5.13;;;;;;;10.44;91.66;98620.53;5092991;28;20676;-74
2021/05/09 02:43:46;;;;;;;5.70;5.20;;;;;;;10.52;90.82;98623.53;5093285;28;20186;-73
2021/05/09 02:46:13;;;;;;;5.30;4.80;;;;;;;10.57;90.72;98615.13;5093340;28;20209;-72
2021/05/09 02:48:39;;;;;;;5.72;5.25;;;;;;;10.26;92.39;98616.47;5093315;28;20183;-74
2021/05/09 02:51:05;;;;;;;6.05;5.45;;;;;;;10.18;93.09;98611.66;5092807;28;20190;-74
2021/05/09 02:53:31;;;;;;;6.30;5.78;;;;;;;10.19;93.19;98616.06;5092822;28;20207;-73
2021/05/09 02:55:57;;;;;;;5.95;5.45;;;;;;;10.06;94.02;98615.22;5092979;28;20194;-73
2021/05/09 02:58:23;;;;;;;5.82;4.85;;;;;;;10.12;93.91;98620.16;5092244;28;20250;-74
2021/05/09 03:00:50;;;;;;;6.00;5.07;;;;;;;10.01;94.44;98626.31;5092596;28;20237;-74
2021/05/09 03:03:17;;;;;;;5.68;4.95;;;;;;;10.10;94.20;98617.56;5092864;28;20190;-73
2021/05/09 03:05:43;;;;;;;5.10;4.70;;;;;;;10.21;93.33;98606.03;5092665;28;20283;-75
2021/05/09 03:08:09;;;;;;;6.22;5.63;;;;;;;10.21;93.05;98604.22;5092669;28;20293;-75
2021/05/09 03:10:36;;;;;;;6.10;5.18;;;;;;;10.14;93.46;98607.47;5092567;28;20194;-74
2021/05/09 03:13:02;;;;;;;6.47;5.40;;;;;;;10.17;93.72;98612.59;5092835;28;20238;-75
2021/05/09 03:15:28;;;;;;;5.22;4.70;;;;;;;10.17;93.80;98613.47;5092821;28;20233;-72
2021/05/09 03:17:55;;;;;;;5.50;5.00;;;;;;;10.29;92.96;98611.78;5092731;28;20577;-74
2021/05/09 03:20:22;;;;;;;9.20;5.38;;;;;;;10.32;92.88;98605.31;5092523;28;20685;-72
2021/05/09 03:22:48;;;;;;;5.57;5.03;;;;;;;10.30;93.14;98607.25;5092662;28;20611;-73
2021/05/09 03:25:14;;;;;;;5.22;4.43;;;;;;;10.52;91.77;98607.38;5092444;28;20187;-73
2021/05/09 03:27:40;;;;;;;5.90;5.40;;;;;;;10.58;91.01;98606.94;5092741;28;20200;-73
2021/05/09 03:30:07;;;;;;;6.30;5.45;;;;;;;10.63;90.28;98615.53;5092803;28;20287;-73
2021/05/09 03:32:33;;;;;;;5.90;5.35;;;;;;;10.71;89.15;98612.25;5092202;28;20202;-74
2021/05/09 03:35:00;;;;;;;5.88;5.28;;;;;;;10.55;89.62;98612.53;5091973;28;20218;-73
2021/05/09 03:37:27;;;;;;;5.00;4.60;;;;;;;10.52;89.83;98610.09;5092525;28;20228;-73
2021/05/09 03:39:53;;;;;;;4.85;4.10;;;;;;;10.51;89.80;98608.34;5092045;28;20227;-75
2021/05/09 03:42:19;;;;;;;5.40;4.90;;;;;;;10.25;92.04;98612.06;5092618;28;20219;-73
2021/05/09 03:44:45;;;;;;;6.78;5.15;;;;;;;10.35;92.21;98608.63;5092388;28;20242;-71
2021/05/09 03:47:11;;;;;;;4.75;4.35;;;;;;;10.60;90.84;98610.34;5092459;28;20684;-75
2021/05/09 03:49:37;;;;;;;8.68;5.35;;;;;;;10.58;90.63;98611.44;5092151;28;20559;-75
2021/05/09 03:52:04;;;;;;;5.53;4.88;;;;;;;10.71;89.84;98614.97;5092621;28;20217;-73
2021/05/09 03:54:31;;;;;;;5.40;4.90;;;;;;;10.88;88.56;98602.94;5091956;28;20187;-75
2021/05/09 03:56:57;;;;;;;6.43;5.00;;;;;;;10.71;89.80;98617.66;5092281;28;20198;-74
2021/05/09 03:59:23;;;;;;;7.68;5.15;;;;;;;10.82;89.14;98606.09;5091889;28;20259;-75
2021/05/09 04:01:49;;;;;;;5.60;5.10;;;;;;;10.63;89.69;98603.91;5092499;28;20274;-72
2021/05/09 04:04:15;;;;;;;5.60;5.10;;;;;;;10.55;90.36;98598.22;5092232;28;20192;-75
2021/05/09 04:06:41;;;;;;;4.88;4.47;;;;;;;10.47;90.87;98608.69;5092075;28;20636;-73
2021/05/09 04:09:08;;;;;;;5.03;4.57;;;;;;;10.28;92.33;98598.38;5093963;28;20613;-72
2021/05/09 04:11:35;;;;;;;5.47;4.68;;;;;;;10.43;91.85;98605.38;5096224;28;20563;-75
2021/05/09 04:14:01;;;;;;;5.70;5.00;;;;;;;10.61;90.62;98601.31;5096304;28;20545;-74
2021/05/09 04:16:27;;;;;;;6.40;5.30;;;;;;;10.43;91.30;98590.09;5095874;28;20260;-73
2021/05/09 04:18:54;;;;;;;5.45;4.95;;;;;;;10.72;90.09;98584.38;5095596;28;20226;-74
2021/05/09 04:21:20;;;;;;;6.07;5.50;;;;;;;10.66;89.99;98587.53;5096139;28;20184;-74
2021/05/09 04:23:46;;;;;;;5.45;4.82;;;;;;;10.72;89.42;98587.06;5095891;28;20211;-75
2021/05/09 04:26:12;;;;;;;6.25;5.65;;;;;;;10.73;89.38;98587.94;5095729;28;20219;-74
2021/05/09 04:28:39;;;;;;;6.22;5.65;;;;;;;10.71;89.50;98592.56;5095843;28;20310;-74
2021/05/09 04:31:05;;;;;;;7.22;6.53;;;;;;;10.74;88.98;98590.50;5095252;28;20281;-74
2021/05/09 04:33:31;;;;;;;6.13;5.50;;;;;;;10.85;88.67;98592.38;5095847;28;20290;-73
2021/05/09 04:35:57;;;;;;;8.15;7.05;;;;;;;10.86;88.23;98586.03;5094985;28;20282;-75
2021/05/09 04:38:24;;;;;;;6.40;5.88;;;;;;;10.86;87.96;98594.13;5095211;28;20312;-73
2021/05/09 04:40:50;;;;;;;7.38;6.70;;;;;;;10.77;88.06;98586.72;5095508;28;20723;-73
2021/05/09 04:43:17;;;;;;;7.38;6.68;;;;;;;10.76;88.33;98582.31;5095722;28;20642;-75
2021/05/09 04:45:46;;;;;;;6.07;5.53;;;;;;;10.75;88.06;98586.84;5095249;28;20299;-75
2021/05/09 04:48:13;;;;;;;7.63;6.93;;;;;;;10.77;87.89;98589.41;5095585;28;20198;-75
2021/05/09 04:50:39;;;;;;;6.65;6.15;;;;;;;10.80;88.08;98589.19;5095089;28;20190;-73
2021/05/09 04:53:26;;;;;;;7.50;6.78;;;;;;;10.93;87.62;98591.81;5095371;28;20257;-74
2021/05/09 04:55:52;;;;;;;7.47;6.47;;;;;;;10.98;87.27;98592.31;5095264;28;20226;-74
2021/05/09 04:58:18;;;;;;;6.30;5.28;;;;;;;10.79;88.37;98596.41;5094551;28;20231;-74
2021/05/09 05:00:46;;;;;;;6.82;6.22;;;;;;;11.01;87.63;98592.97;5095093;28;20311;-74
2021/05/09 05:03:12;;;;;;;7.53;6.55;;;;;;;11.11;86.47;98585.03;5094744;28;20224;-74
2021/05/09 05:05:39;;;;;;;6.88;6.18;;;;;;;11.24;85.56;98588.50;5095043;28;20203;-74
2021/05/09 05:08:05;;;;;;;7.35;5.90;;;;;;;11.34;84.97;98588.63;5094760;28;20188;-73
2021/05/09 05:10:31;;;;;;;6.72;6.00;;;;;;;11.43;84.54;98592.47;5095083;28;20199;-74
2021/05/09 05:12:57;;;;;;;10.45;7.00;;;;;;;11.48;84.47;98591.13;5094387;28;20238;-74
2021/05/09 05:15:23;;;;;;;6.68;6.07;;;;;;;11.57;84.25;98592.25;5094769;28;20579;-74
2021/05/09 05:17:50;;;;;;;7.55;5.80;;;;;;;11.82;83.42;98593.84;5094578;28;20295;-74
2021/05/09 05:20:16;;;;;;;9.93;5.78;;;;;;;12.15;81.75;98588.63;5093854;28;20208;-75
2021/05/09 05:22:43;;;;;;;8.38;6.47;;;;;;;12.44;80.64;98597.94;5094639;28;20210;-75
2021/05/09 05:25:10;;;;;;;14.00;5.68;;;;;;;12.49;79.85;98587.59;5094625;28;20271;-72
2021/05/09 05:27:36;;;;;;;13.15;6.32;;;;;;;12.54;79.62;98589.91;5093780;28;20196;-74
2021/05/09 05:30:03;;;;;;;13.32;6.90;;;;;;;12.47;79.34;98592.25;5094594;28;20184;-74
2021/05/09 05:32:29;;;;;;;18.90;7.50;;;;;;;12.15;81.36;98588.63;5094322;28;20204;-74
2021/05/09 05:34:56;;;;;;;10.43;6.20;;;;;;;11.98;82.53;98590.84;5094547;28;20211;-75
2021/05/09 05:37:22;;;;;;;11.13;5.93;;;;;;;12.09;83.02;98579.19;5094892;28;20246;-74
2021/05/09 05:39:48;;;;;;;12.45;6.80;;;;;;;12.39;82.00;98580.38;5094242;28;20220;-75
2021/05/09 05:42:14;;;;;;;11.18;6.32;;;;;;;12.61;80.82;98580.31;5094462;28;20275;-75
2021/05/09 05:44:40;;;;;;;14.40;6.15;;;;;;;12.60;80.76;98578.63;5094352;28;20237;-72
2021/05/09 05:47:06;;;;;;;10.90;6.00;;;;;;;12.65;80.69;98576.38;5094298;28;20309;-73
2021/05/09 05:49:32;;;;;;;10.52;5.97;;;;;;;12.78;80.39;98580.78;5094484;28;20177;-72
2021/05/09 05:51:59;;;;;;;11.38;6.32;;;;;;;12.92;80.15;98581.34;5094399;28;20612;-74
2021/05/09 05:54:25;;;;;;;7.18;5.85;;;;;;;13.12;79.26;98574.25;5093751;28;20235;-75
2021/05/09 05:56:51;;;;;;;7.40;6.30;;;;;;;13.20;78.51;98576.28;5094139;28;20219;-74
2021/05/09 05:59:18;;;;;;;7.85;6.50;;;;;;;13.21;78.69;98578.03;5093785;28;20244;-74
2021/05/09 06:01:44;;;;;;;6.90;6.30;;;;;;;13.37;78.64;98564.06;5094021;28;20286;-73
2021/05/09 06:04:10;;;;;;;6.70;5.45;;;;;;;13.52;78.72;98570.88;5094342;28;20633;-74
2021/05/09 06:06:36;;;;;;;9.10;6.07;;;;;;;13.96;77.29;98570.66;5093649;28;20191;-74
2021/05/09 06:09:04;;;;;;;9.43;5.80;;;;;;;14.11;76.63;98566.59;5093808;28;20193;-73
2021/05/09 06:11:30;;;;;;;6.85;6.18;;;;;;;14.37;76.03;98572.38;5094050;28;20192;-74
2021/05/09 06:13:56;;;;;;;5.82;5.28;;;;;;;14.59;75.04;98565.91;5094429;28;20661;-74
2021/05/09 06:16:22;;;;;;;9.60;5.05;;;;;;;14.64;75.45;98561.94;5094008;28;20234;-74
2021/05/09 06:18:48;;;;;;;6.25;4.75;;;;;;;14.72;75.78;98562.94;5093336;28;20197;-74
2021/05/09 06:21:14;;;;;;;7.05;5.25;;;;;;;14.86;75.30;98558.09;5094019;28;20287;-73
2021/05/09 06:23:40;;;;;;;9.32;5.38;;;;;;;14.89;76.15;98560.53;5094077;28;20197;-73
2021/05/09 06:26:07;;;;;;;4.50;4.10;;;;;;;15.32;75.09;98561.94;5093338;28;20522;-73
2021/05/09 06:28:34;;;;;;;4.85;4.20;;;;;;;15.72;73.60;98560.91;5094133;28;20296;-73
2021/05/09 06:31:00;;;;;;;4.63;4.20;;;;;;;15.86;73.19;98560.41;5093279;28;20294;-73
2021/05/09 06:33:26;;;;;;;5.85;3.72;;;;;;;16.20;71.85;98562.56;5093619;28;20649;-75
2021/05/09 06:35:53;;;;;;;4.00;3.70;;;;;;;16.43;71.14;98558.44;5093984;28;20198;-73
2021/05/09 06:38:20;;;;;;;6.95;4.20;;;;;;;16.75;69.82;98556.25;5093321;28;20548;-73
2021/05/09 06:40:46;;;;;;;4.15;3.75;;;;;;;16.95;68.87;98555.13;5093332;28;20603;-72
2021/05/09 06:43:13;;;;;;;6.65;4.07;;;;;;;17.13;68.01;98544.22;5093218;28;20333;-74
2021/05/09 06:45:39;;;;;;;6.32;4.47;;;;;;;17.32;67.28;98550.50;5093401;28;20220;-74
2021/05/09 06:48:06;;;;;;;4.50;3.53;;;;;;;17.47;66.98;98554.38;5093543;28;20223;-74
2021/05/09 06:50:33;;;;;;;3.60;3.30;;;;;;;17.67;66.17;98552.31;5093486;28;20192;-73
2021/05/09 06:53:02;;;;;;;8.70;4.00;;;;;;;17.78;65.77;98556.66;5093337;28;20734;-75
2021/05/09 06:55:29;;;;;;;4.13;3.55;;;;;;;17.92;65.41;98547.91;5093290;28;20227;-75
2021/05/09 06:57:55;;;;;;;4.57;3.65;;;;;;;18.20;64.41;98551.25;5093089;28;20218;-72
2021/05/09 07:00:22;;;;;;;4.80;3.60;;;;;;;18.37;63.68;98554.09;5093312;28;20284;-73
2021/05/09 07:02:49;;;;;;;4.95;3.53;;;;;;;18.54;63.51;98558.56;5093230;28;20618;-75
2021/05/09 07:05:15;;;;;;;3.80;3.33;;;;;;;18.71;62.66;98552.13;5092758;28;20271;-73
2021/05/09 07:07:52;;;;;;;4.15;3.30;;;;;;;18.91;62.12;98532.78;5093161;28;20196;-75
2021/05/09 07:10:19;;;;;;;4.88;3.15;;;;;;;19.11;61.30;98536.91;5092622;28;20272;-74
2021/05/09 07:12:45;;;;;;;5.65;3.58;;;;;;;19.32;60.54;98541.00;5092795;28;20596;-75
2021/05/09 07:15:15;;;;;;;3.35;3.05;;;;;;;19.31;60.27;98520.16;5093144;28;20191;-74
2021/05/09 07:17:53;;;;;;;4.43;3.05;;;;;;;19.58;59.28;98525.28;5093090;28;20662;-75
2021/05/09 07:20:19;;;;;;;3.78;3.13;;;;;;;19.66;58.86;98527.13;5092737;28;20205;-74
2021/05/09 07:22:52;;;;;;;3.30;3.00;;;;;;;19.59;58.74;98526.97;5092509;28;20285;-74
2021/05/09 07:25:19;;;;;;;6.38;2.78;;;;;;;19.69;58.43;98517.78;5093124;28;20194;-74
2021/05/09 07:27:45;;;;;;;2.90;2.60;;;;;;;19.90;57.59;98518.09;5092660;28;20204;-74
2021/05/09 07:30:12;;;;;;;6.95;3.05;;;;;;;20.12;56.81;98512.88;5092878;28;20214;-75
2021/05/09 07:32:38;;;;;;;3.10;2.60;;;;;;;20.29;56.23;98525.44;5093048;28;20183;-74
2021/05/09 07:35:06;;;;;;;3.30;3.00;;;;;;;20.39;55.80;98527.97;5092698;28;20230;-73
2021/05/09 07:37:32;;;;;;;3.60;2.80;;;;;;;20.66;55.50;98520.34;5092394;28;20218;-74
2021/05/09 07:39:58;;;;;;;3.50;3.20;;;;;;;20.81;54.88;98515.81;5092759;28;20223;-74
2021/05/09 07:42:24;;;;;;;3.10;2.80;;;;;;;20.96;53.80;98513.13;5092833;28;20202;-73
2021/05/09 07:44:54;;;;;;;4.97;4.50;;;;;;;21.03;54.44;98505.91;5095423;28;20515;-74
2021/05/09 07:47:20;;;;;;;4.00;3.15;;;;;;;21.27;53.64;98507.59;5096190;28;20448;-75
2021/05/09 07:49:47;;;;;;;3.90;3.63;;;;;;;21.58;52.88;98504.75;5096806;28;20221;-72
2021/05/09 07:52:14;;;;;;;3.27;3.00;;;;;;;21.59;52.13;98505.59;5096362;28;20841;-75
2021/05/09 07:54:40;;;;;;;6.40;3.83;;;;;;;21.85;51.44;98510.66;5096439;28;20433;-73
2021/05/09 07:57:06;;;;;;;4.27;3.17;;;;;;;22.18;50.55;98500.19;5096713;28;20441;-73
2021/05/09 07:59:33;;;;;;;6.53;4.10;;;;;;;22.35;49.93;98514.53;5096392;28;20466;-73
2021/05/09 08:01:59;;;;;;;3.07;2.80;;;;;;;22.43;49.31;98502.59;5096278;28;20483;-73
2021/05/09 08:04:25;;;;;;;4.47;2.50;;;;;;;22.09;49.92;98493.06;5096492;28;20477;-74
2021/05/09 08:06:51;;;;;;;3.73;3.20;;;;;;;22.36;49.69;98502.53;5096259;28;20433;-73
2021/05/09 08:09:18;;;;;;;3.40;2.80;;;;;;;22.66;48.68;98486.88;5096274;28;20527;-72
2021/05/09 08:11:44;;;;;;;3.93;3.33;;;;;;;22.82;47.91;98482.19;5096551;28;20522;-74
2021/05/09 08:14:10;;;;;;;4.30;2.70;;;;;;;22.93;47.65;98476.19;5096181;28;20503;-72
2021/05/09 08:16:37;;;;;;;3.00;2.80;;;;;;;22.93;47.67;98478.06;5096566;28;21045;-73
2021/05/09 08:19:03;;;;;;;3.10;2.63;;;;;;;23.08;47.30;98474.22;5096584;28;21210;-75
2021/05/09 08:21:29;;;;;;;2.90;2.70;;;;;;;23.08;46.58;98471.47;5096324;28;20444;-75
2021/05/09 08:23:55;;;;;;;4.50;2.60;;;;;;;23.18;46.72;98462.94;5096295;28;20871;-74
2021/05/09 08:26:22;;;;;;;2.37;2.17;;;;;;;23.34;45.96;98463.66;5096225;28;20512;-75
2021/05/09 08:28:48;;;;;;;10.50;3.13;;;;;;;23.30;45.99;98453.09;5096465;28;20437;-74
2021/05/09 08:31:16;;;;;;;3.40;2.50;;;;;;;23.21;45.77;98456.19;5095967;28;20513;-75
2021/05/09 08:33:42;;;;;;;3.20;2.47;;;;;;;23.20;46.04;98449.84;5095795;28;20798;-73
2021/05/09 08:36:09;;;;;;;3.23;2.93;;;;;;;23.33;45.79;98465.56;5095664;28;20579;-74
2021/05/09 08:38:35;;;;;;;3.07;2.67;;;;;;;23.34;45.30;98463.66;5096023;28;20494;-73
2021/05/09 08:41:02;;;;;;;3.37;2.73;;;;;;;23.29;45.39;98453.28;5095187;28;20496;-72
2021/05/09 08:43:29;;;;;;;4.23;2.60;;;;;;;23.44;45.04;98451.31;5095406;28;20918;-73
2021/05/09 08:45:57;;;;;;;2.40;2.23;;;;;;;23.39;45.26;98450.22;5094848;28;20522;-73
2021/05/09 08:48:25;;;;;;;3.10;2.80;;;;;;;23.37;44.96;98444.06;5094116;28;20566;-73
2021/05/09 08:50:51;;;;;;;3.00;2.60;;;;;;;23.67;44.19;98451.03;5095689;28;20216;-75
2021/05/09 08:53:19;;;;;;;2.50;2.40;;;;;;;23.61;44.19;98445.53;5096112;28;20564;-75
2021/05/09 08:55:45;;;;;;;2.60;2.40;;;;;;;23.62;44.05;98442.56;5093991;28;20501;-74
2021/05/09 08:58:12;;;;;;;2.30;2.10;;;;;;;23.64;44.08;98434.13;5095720;28;20855;-74
2021/05/09 09:00:39;;;;;;;2.80;2.60;;;;;;;23.98;43.54;98440.69;5095417;28;20467;-75
2021/05/09 09:03:06;;;;;;;3.47;2.07;;;;;;;24.11;42.74;98440.75;5095380;28;20465;-74
2021/05/09 09:05:38;;;;;;;4.00;2.90;;;;;;;24.09;42.00;98438.22;5095381;28;20451;-74
2021/05/09 09:08:06;;;;;;;4.53;2.60;;;;;;;24.07;42.02;98433.97;5095808;28;20536;-73
2021/05/09 09:10:34;;;;;;;2.77;2.37;;;;;;;24.11;41.77;98432.50;5095654;28;20422;-75
2021/05/09 09:13:02;;;;;;;6.03;2.57;;;;;;;24.20;41.91;98434.03;5095154;28;20878;-74
2021/05/09 09:15:50;;;;;;;4.03;2.30;;;;;;;24.17;41.08;98425.31;5095410;28;20411;-75
2021/05/09 09:18:34;;;;;;;2.70;2.50;;;;;;;24.10;41.16;98436.31;5095278;28;20436;-74
2021/05/09 09:21:19;;;;;;;3.57;2.30;;;;;;;24.15;41.09;98414.56;5095848;28;21080;-75
2021/05/09 09:23:46;;;;;;;4.00;2.27;;;;;;;24.25;40.81;98425.16;5094471;28;20446;-74
2021/05/09 09:26:33;;;;;;;2.70;2.50;;;;;;;24.20;39.71;98419.44;5095418;28;20524;-75
2021/05/09 09:29:00;;;;;;;4.10;1.93;;;;;;;24.18;40.07;98421.53;5095235;28;20429;-75
2021/05/09 09:31:41;;;;;;;2.87;2.47;;;;;;;24.46;39.96;98414.00;5095213;28;20440;-74
2021/05/09 09:34:08;;;;;;;4.00;2.13;;;;;;;24.43;40.10;98411.69;5095221;28;20418;-74
2021/05/09 09:36:35;;;;;;;3.30;2.33;;;;;;;24.72;39.60;98416.00;5095178;28;20429;-75
2021/05/09 09:39:01;;;;;;;2.20;2.07;;;;;;;24.81;39.19;98421.34;5094711;28;20457;-74
2021/05/09 09:41:27;;;;;;;3.00;2.17;;;;;;;24.72;38.77;98410.50;5094695;28;21051;-73
2021/05/09 09:44:06;;;;;;;3.40;2.30;;;;;;;24.68;38.74;98414.72;5094320;28;20445;-74
2021/05/09 09:46:34;;;;;;;3.03;2.27;;;;;;;24.66;39.08;98402.25;5094712;28;20437;-73
2021/05/09 09:49:03;;;;;;;2.87;2.67;;;;;;;24.72;39.00;98404.16;5095019;28;20454;-75
2021/05/09 09:51:29;;;;;;;3.47;2.37;;;;;;;24.87;38.75;98402.03;5094249;28;20452;-75
2021/05/09 09:53:57;;;;;;;4.40;2.73;;;;;;;24.76;38.93;98409.03;5094488;28;20566;-73
2021/05/09 09:56:25;;;;;;;3.33;2.30;;;;;;;25.01;38.79;98404.81;5094670;28;20429;-74
2021/05/09 09:58:54;;;;;;;2.77;2.57;;;;;;;24.82;39.05;98392.75;5094730;28;20778;-74
2021/05/09 10:01:23;;;;;;;2.20;2.00;;;;;;;25.02;38.57;98417.53;5094247;28;20477;-75
2021/05/09 10:03:50;;;;;;;2.90;2.60;;;;;;;24.71;38.58;98413.47;5094836;28;20438;-76
2021/05/09 10:06:18;;;;;;;2.37;2.20;;;;;;;24.97;37.89;98393.38;5093820;28;20530;-74
2021/05/09 10:08:45;;;;;;;4.73;2.53;;;;;;;25.06;38.06;98403.13;5094173;28;20507;-74
2021/05/09 10:11:11;;;;;;;4.63;2.23;;;;;;;25.11;37.91;98408.84;5094173;28;20469;-75
2021/05/09 10:13:38;;;;;;;3.00;2.10;;;;;;;25.11;38.07;98392.31;5094378;28;20799;-73
2021/05/09 10:16:05;;;;;;;3.10;1.80;;;;;;;25.08;38.03;98387.25;5094093;28;20786;-75
2021/05/09 10:18:33;;;;;;;4.77;2.27;;;;;;;25.30;38.23;98385.13;5094137;28;20937;-74
2021/05/09 10:21:01;;;;;;;3.03;1.77;;;;;;;25.36;37.65;98389.78;5093587;28;21008;-75
2021/05/09 10:23:28;;;;;;;3.17;2.53;;;;;;;25.48;37.52;98384.47;5093958;28;20454;-75
2021/05/09 10:25:56;;;;;;;3.10;2.13;;;;;;;25.58;37.72;98386.81;5094011;28;20473;-72
2021/05/09 10:28:23;;;;;;;2.87;2.40;;;;;;;25.55;37.47;98378.94;5093775;28;20932;-74
2021/05/09 10:31:14;;;;;;;2.70;2.10;;;;;;;25.72;37.25;98376.59;5095371;28;20438;-75
2021/05/09 10:33:45;;;;;;;3.43;3.23;;;;;;;26.06;36.78;98383.69;5093437;28;20434;-74
2021/05/09 10:36:38;;;;;;;5.00;1.93;;;;;;;26.39;36.50;98372.50;5093583;28;20437;-75
2021/05/09 10:39:18;;;;;;;3.10;2.17;;;;;;;26.51;36.43;98380.09;5092819;28;20434;-75
2021/05/09 10:42:17;;;;;;;3.80;2.00;;;;;;;26.38;35.84;98386.53;5093139;28;20477;-74
2021/05/09 10:44:45;;;;;;;7.03;2.40;;;;;;;26.41;36.03;98383.31;5093535;28;20471;-75
2021/05/09 10:47:16;;;;;;;2.03;1.80;;;;;;;26.56;35.92;98377.53;5093612;28;20916;-75
2021/05/09 10:50:21;;;;;;;3.23;1.80;;;;;;;26.79;35.19;98388.84;5093435;28;20421;-74
2021/05/09 10:52:48;;;;;;;2.10;2.00;;;;;;;26.81;34.50;98389.47;5083977;28;20445;-72
2021/05/09 10:55:44;;;;;;;2.73;2.27;;;;;;;26.41;34.96;98378.66;5093351;28;20961;-75
2021/05/09 10:58:12;;;;;;;2.77;1.90;;;;;;;26.17;35.26;98374.75;5092509;28;20438;-74
2021/05/09 11:01:16;;;;;;;2.30;1.97;;;;;;;26.16;35.67;98372.19;5093092;28;20485;-73
2021/05/09 11:03:47;;;;;;;3.73;1.90;;;;;;;26.27;35.67;98390.81;5092943;28;20475;-74
2021/05/09 11:06:15;;;;;;;4.27;1.70;;;;;;;26.54;35.41;98382.41;5092999;28;20414;-73
2021/05/09 11:08:59;;;;;;;5.83;2.27;;;;;;;26.62;35.22;98380.25;5069899;28;72837;-75
2021/05/09 11:12:11;;;;;;;2.17;1.97;;;;;;;26.72;34.99;98390.81;5042172;28;20776;-74
2021/05/09 11:14:39;;;;;;;2.77;2.13;;;;;;;26.75;35.27;98382.09;5036018;28;21008;-76
2021/05/09 11:17:10;;;;;;;9.50;2.23;;;;;;;26.88;35.15;98386.66;5044095;28;20436;-73
2021/05/09 11:19:39;;;;;;;3.73;1.70;;;;;;;27.02;34.99;98381.88;5039799;28;20475;-73
2021/05/09 11:22:08;;;;;;;2.93;1.80;;;;;;;27.03;34.84;98387.16;5041471;28;20436;-74
2021/05/09 11:24:36;;;;;;;4.03;1.70;;;;;;;26.39;35.32;98380.78;5041720;28;20453;-74
2021/05/09 11:27:07;;;;;;;8.30;2.17;;;;;;;26.34;35.35;98377.00;5040548;28;20964;-75
2021/05/09 11:29:34;;;;;;;6.47;1.70;;;;;;;26.23;35.69;98380.44;5042702;28;20428;-73
2021/05/09 11:32:07;;;;;;;7.10;2.20;;;;;;;26.48;35.77;98375.00;5044061;28;20480;-74
2021/05/09 11:34:34;;;;;;;1.97;1.57;;;;;;;26.56;35.76;98372.84;5041118;28;20510;-74
2021/05/09 11:37:00;;;;;;;2.10;1.83;;;;;;;26.64;35.92;98363.47;5042522;28;20433;-74